FLT555 TNCM-TNCS
Flight info
| Callsign | FLT555 |
|---|---|
| Flight time | 0h 29m |
| Altitude | 2000 |
| Route | TFFJ |
| Aircraft | C172/L-VGD/C |
Departure
| Time | 2026-05-05 01:54 |
|---|---|
| Airport | Princess Juliana International Airport (TNCM) |
Arrival
| Time | 2026-05-05 02:23 |
|---|---|
| Airport | Juancho E. Yrausquin Airport (TNCS) |
| Time | Latitude | Longitude | Altitude | Speed | Heading |
|---|---|---|---|---|---|
| 2026-05-05 01:40 | 18.04184 | -63.10948 | 16 ft | 0 kts | 352° |
| 2026-05-05 01:49 | 18.04198 | -63.10963 | 16 ft | 5 kts | 267° |
| 2026-05-05 01:49 | 18.04182 | -63.11008 | 16 ft | 8 kts | 248° |
| 2026-05-05 01:50 | 18.04167 | -63.11074 | 16 ft | 11 kts | 263° |
| 2026-05-05 01:50 | 18.04153 | -63.11164 | 16 ft | 14 kts | 258° |
| 2026-05-05 01:50 | 18.04147 | -63.11274 | 16 ft | 13 kts | 293° |
| 2026-05-05 01:50 | 18.04230 | -63.11322 | 16 ft | 14 kts | 309° |
| 2026-05-05 01:51 | 18.04226 | -63.11435 | 16 ft | 18 kts | 257° |
| 2026-05-05 01:51 | 18.04158 | -63.11552 | 16 ft | 21 kts | 229° |
| 2026-05-05 01:51 | 18.04078 | -63.11650 | 16 ft | 12 kts | 223° |
| 2026-05-05 01:51 | 18.04004 | -63.11650 | 16 ft | 8 kts | 162° |
| 2026-05-05 01:52 | 18.03991 | -63.11603 | 16 ft | 0 kts | 82° |
| 2026-05-05 01:52 | 18.03991 | -63.11600 | 16 ft | 6 kts | 82° |
| 2026-05-05 01:52 | 18.04028 | -63.11359 | 15 ft | 58 kts | 80° |
| 2026-05-05 01:53 | 18.04127 | -63.10855 | 90 ft | 79 kts | 78° |
| 2026-05-05 01:53 | 18.03880 | -63.10353 | 270 ft | 83 kts | 126° |
| 2026-05-05 01:53 | 18.03539 | -63.09884 | 384 ft | 83 kts | 120° |
| 2026-05-05 01:53 | 18.03172 | -63.09418 | 581 ft | 82 kts | 133° |
| 2026-05-05 01:54 | 18.02898 | -63.08866 | 644 ft | 103 kts | 89° |
| 2026-05-05 01:54 | 18.02837 | -63.08225 | 1036 ft | 78 kts | 116° |
| 2026-05-05 01:54 | 18.02571 | -63.07758 | 1333 ft | 75 kts | 118° |
| 2026-05-05 01:54 | 18.02394 | -63.07435 | 1480 ft | 80 kts | 118° |
| 2026-05-05 01:55 | 18.02007 | -63.06759 | 1759 ft | 87 kts | 118° |
| 2026-05-05 01:55 | 18.01674 | -63.06220 | 1968 ft | 86 kts | 118° |
| 2026-05-05 01:55 | 18.01331 | -63.05661 | 2016 ft | 98 kts | 118° |
| 2026-05-05 01:55 | 18.00951 | -63.05031 | 2021 ft | 105 kts | 118° |
| 2026-05-05 01:56 | 18.00694 | -63.04597 | 2021 ft | 107 kts | 118° |
| 2026-05-05 01:56 | 18.00300 | -63.03927 | 2019 ft | 108 kts | 118° |
| 2026-05-05 01:56 | 17.99904 | -63.03259 | 2016 ft | 106 kts | 118° |
| 2026-05-05 01:56 | 17.99515 | -63.02614 | 2007 ft | 103 kts | 118° |
| 2026-05-05 01:57 | 17.99128 | -63.01984 | 2005 ft | 102 kts | 118° |
| 2026-05-05 01:57 | 17.98737 | -63.01350 | 2011 ft | 105 kts | 118° |
| 2026-05-05 01:57 | 17.98340 | -63.00699 | 2010 ft | 106 kts | 118° |
| 2026-05-05 01:57 | 17.97943 | -63.00057 | 2006 ft | 103 kts | 118° |
| 2026-05-05 01:58 | 17.97555 | -62.99425 | 2005 ft | 102 kts | 118° |
| 2026-05-05 01:58 | 17.97174 | -62.98807 | 2003 ft | 102 kts | 118° |
| 2026-05-05 01:58 | 17.96790 | -62.98183 | 2002 ft | 101 kts | 118° |
| 2026-05-05 01:58 | 17.96432 | -62.97561 | 1879 ft | 95 kts | 115° |
| 2026-05-05 01:59 | 17.96129 | -62.96954 | 1719 ft | 93 kts | 113° |
| 2026-05-05 01:59 | 17.95821 | -62.96318 | 1429 ft | 102 kts | 116° |
| 2026-05-05 01:59 | 17.95519 | -62.95717 | 1409 ft | 89 kts | 115° |
| 2026-05-05 01:59 | 17.95281 | -62.95105 | 1276 ft | 89 kts | 110° |
| 2026-05-05 02:00 | 17.95064 | -62.94503 | 1165 ft | 88 kts | 115° |
| 2026-05-05 02:00 | 17.94795 | -62.93925 | 1057 ft | 87 kts | 113° |
| 2026-05-05 02:00 | 17.94558 | -62.93395 | 1088 ft | 75 kts | 122° |
| 2026-05-05 02:00 | 17.94246 | -62.92966 | 1127 ft | 74 kts | 125° |
| 2026-05-05 02:01 | 17.93929 | -62.92533 | 1122 ft | 75 kts | 120° |
| 2026-05-05 02:01 | 17.93651 | -62.92065 | 1124 ft | 75 kts | 121° |
| 2026-05-05 02:01 | 17.93328 | -62.91631 | 1106 ft | 77 kts | 126° |
| 2026-05-05 02:01 | 17.92965 | -62.91204 | 1092 ft | 78 kts | 127° |
| 2026-05-05 02:02 | 17.92608 | -62.90788 | 1103 ft | 78 kts | 127° |
| 2026-05-05 02:02 | 17.92249 | -62.90346 | 1089 ft | 80 kts | 124° |
| 2026-05-05 02:02 | 17.91897 | -62.89886 | 1057 ft | 85 kts | 127° |
| 2026-05-05 02:02 | 17.91483 | -62.89438 | 1057 ft | 85 kts | 129° |
| 2026-05-05 02:03 | 17.91109 | -62.88975 | 1125 ft | 81 kts | 123° |
| 2026-05-05 02:03 | 17.90911 | -62.88425 | 1185 ft | 82 kts | 112° |
| 2026-05-05 02:03 | 17.90609 | -62.87900 | 1157 ft | 85 kts | 111° |
| 2026-05-05 02:03 | 17.90486 | -62.87280 | 858 ft | 93 kts | 94° |
| 2026-05-05 02:04 | 17.90440 | -62.86639 | 626 ft | 80 kts | 97° |
| 2026-05-05 02:04 | 17.90392 | -62.86123 | 516 ft | 64 kts | 84° |
| 2026-05-05 02:04 | 17.90393 | -62.85692 | 415 ft | 58 kts | 82° |
| 2026-05-05 02:04 | 17.90402 | -62.85267 | 294 ft | 58 kts | 78° |
| 2026-05-05 02:05 | 17.90414 | -62.84862 | 152 ft | 51 kts | 88° |
| 2026-05-05 02:05 | 17.90442 | -62.84455 | 36 ft | 55 kts | 85° |
| 2026-05-05 02:05 | 17.90445 | -62.84208 | 22 ft | 12 kts | 90° |
| 2026-05-05 02:05 | 17.90436 | -62.84128 | 15 ft | 5 kts | 44° |
| 2026-05-05 02:06 | 17.90445 | -62.84145 | 16 ft | 5 kts | 268° |
| 2026-05-05 02:06 | 17.90442 | -62.84213 | 22 ft | 14 kts | 266° |
| 2026-05-05 02:06 | 17.90440 | -62.84339 | 31 ft | 17 kts | 271° |
| 2026-05-05 02:06 | 17.90394 | -62.84408 | 35 ft | 15 kts | 263° |
| 2026-05-05 02:07 | 17.90389 | -62.84547 | 45 ft | 20 kts | 269° |
| 2026-05-05 02:07 | 17.90405 | -62.84642 | 46 ft | 10 kts | 314° |
| 2026-05-05 02:07 | 17.90432 | -62.84635 | 45 ft | 0 kts | 90° |
| 2026-05-05 02:08 | 17.90433 | -62.84627 | 46 ft | 10 kts | 85° |
| 2026-05-05 02:08 | 17.90441 | -62.84380 | 33 ft | 58 kts | 85° |
| 2026-05-05 02:08 | 17.90403 | -62.83880 | 199 ft | 75 kts | 104° |
| 2026-05-05 02:08 | 17.90189 | -62.83364 | 430 ft | 78 kts | 113° |
| 2026-05-05 02:09 | 17.89771 | -62.83004 | 698 ft | 87 kts | 151° |
| 2026-05-05 02:09 | 17.89181 | -62.82899 | 1002 ft | 89 kts | 180° |
| 2026-05-05 02:09 | 17.88598 | -62.83178 | 1199 ft | 102 kts | 210° |
| 2026-05-05 02:09 | 17.88155 | -62.83883 | 1364 ft | 120 kts | 232° |
| 2026-05-05 02:10 | 17.87742 | -62.84660 | 1527 ft | 118 kts | 237° |
| 2026-05-05 02:10 | 17.87354 | -62.85414 | 1705 ft | 119 kts | 236° |
| 2026-05-05 02:10 | 17.86932 | -62.86179 | 1827 ft | 122 kts | 236° |
| 2026-05-05 02:10 | 17.86510 | -62.86948 | 1968 ft | 123 kts | 236° |
| 2026-05-05 02:11 | 17.86075 | -62.87751 | 2012 ft | 131 kts | 236° |
| 2026-05-05 02:11 | 17.85613 | -62.88618 | 2020 ft | 142 kts | 236° |
| 2026-05-05 02:11 | 17.85145 | -62.89526 | 2012 ft | 139 kts | 236° |
| 2026-05-05 02:11 | 17.84701 | -62.90413 | 2005 ft | 134 kts | 237° |
| 2026-05-05 02:12 | 17.84283 | -62.91283 | 2000 ft | 133 kts | 238° |
| 2026-05-05 02:12 | 17.83462 | -62.93054 | 2008 ft | 137 kts | 240° |
| 2026-05-05 02:12 | 17.83072 | -62.93943 | 2000 ft | 130 kts | 240° |
| 2026-05-05 02:13 | 17.82716 | -62.94786 | 2002 ft | 126 kts | 242° |
| 2026-05-05 02:13 | 17.82366 | -62.95636 | 2001 ft | 128 kts | 242° |
| 2026-05-05 02:13 | 17.82017 | -62.96507 | 2001 ft | 130 kts | 243° |
| 2026-05-05 02:13 | 17.81677 | -62.97385 | 2001 ft | 130 kts | 241° |
| 2026-05-05 02:14 | 17.81348 | -62.98259 | 2006 ft | 128 kts | 243° |
| 2026-05-05 02:14 | 17.81024 | -62.99146 | 2014 ft | 133 kts | 244° |
| 2026-05-05 02:14 | 17.80679 | -63.00077 | 2030 ft | 141 kts | 240° |
| 2026-05-05 02:14 | 17.80268 | -63.01063 | 2030 ft | 151 kts | 245° |
| 2026-05-05 02:15 | 17.79884 | -63.02147 | 1524 ft | 173 kts | 248° |
| 2026-05-05 02:15 | 17.79573 | -63.03254 | 1682 ft | 149 kts | 250° |
| 2026-05-05 02:15 | 17.79282 | -63.04250 | 1784 ft | 137 kts | 248° |
| 2026-05-05 02:15 | 17.79022 | -63.05198 | 1882 ft | 135 kts | 252° |
| 2026-05-05 02:16 | 17.78520 | -63.05946 | 1987 ft | 119 kts | 213° |
| 2026-05-05 02:16 | 17.77940 | -63.06548 | 2101 ft | 116 kts | 218° |
| 2026-05-05 02:16 | 17.77360 | -63.07179 | 2097 ft | 123 kts | 220° |
| 2026-05-05 02:16 | 17.76774 | -63.07832 | 2088 ft | 124 kts | 220° |
| 2026-05-05 02:17 | 17.76189 | -63.08488 | 2108 ft | 121 kts | 220° |
| 2026-05-05 02:17 | 17.75619 | -63.09153 | 2039 ft | 124 kts | 220° |
| 2026-05-05 02:17 | 17.75024 | -63.09829 | 1911 ft | 127 kts | 221° |
| 2026-05-05 02:17 | 17.74413 | -63.10508 | 1788 ft | 127 kts | 220° |
| 2026-05-05 02:18 | 17.73827 | -63.11188 | 1653 ft | 124 kts | 223° |
| 2026-05-05 02:18 | 17.73221 | -63.11846 | 1486 ft | 126 kts | 219° |
| 2026-05-05 02:18 | 17.72618 | -63.12474 | 1391 ft | 122 kts | 219° |
| 2026-05-05 02:18 | 17.72020 | -63.13096 | 1359 ft | 120 kts | 218° |
| 2026-05-05 02:19 | 17.71425 | -63.13702 | 1312 ft | 120 kts | 218° |
| 2026-05-05 02:19 | 17.70804 | -63.14285 | 1216 ft | 119 kts | 217° |
| 2026-05-05 02:19 | 17.70189 | -63.14859 | 1165 ft | 117 kts | 213° |
| 2026-05-05 02:19 | 17.69590 | -63.15390 | 1184 ft | 110 kts | 214° |
| 2026-05-05 02:20 | 17.69003 | -63.15908 | 1155 ft | 112 kts | 212° |
| 2026-05-05 02:20 | 17.68369 | -63.16422 | 1122 ft | 118 kts | 211° |
| 2026-05-05 02:20 | 17.67696 | -63.16940 | 1036 ft | 122 kts | 206° |
| 2026-05-05 02:20 | 17.66977 | -63.17426 | 911 ft | 124 kts | 204° |
| 2026-05-05 02:21 | 17.66214 | -63.17849 | 852 ft | 121 kts | 198° |
| 2026-05-05 02:21 | 17.65502 | -63.18286 | 858 ft | 116 kts | 200° |
| 2026-05-05 02:21 | 17.64875 | -63.18764 | 792 ft | 108 kts | 217° |
| 2026-05-05 02:21 | 17.64439 | -63.19367 | 718 ft | 102 kts | 236° |
| 2026-05-05 02:22 | 17.64206 | -63.20065 | 590 ft | 99 kts | 256° |
| 2026-05-05 02:22 | 17.64139 | -63.20752 | 386 ft | 91 kts | 272° |
| 2026-05-05 02:22 | 17.64263 | -63.21381 | 237 ft | 84 kts | 289° |
| 2026-05-05 02:22 | 17.64470 | -63.21909 | 139 ft | 74 kts | 295° |
| 2026-05-05 02:23 | 17.64612 | -63.22259 | 104 ft | 30 kts | 267° |
| 2026-05-05 02:23 | 17.64622 | -63.22292 | 22 ft | 0 kts | 202° |
| 2026-05-05 02:23 | 17.64623 | -63.22293 | 18 ft | 0 kts | 147° |